Terminal Aerodrome Forecast
Issued by NWS

Home | Current Version | Previous Version | Text Only | Print | Product List | Glossary On
Versions: 1 2 3 4 5 6 7 8 9 10 11 12 13 14 15 16 17 18 19 20 21 22 23 24 25
000
FTUS43 KBIS 291737
TAFMOT
TAF
KMOT 291737Z 2918/3018 28014G20KT P6SM SCT040
     FM300200 24007KT P6SM FEW060
     FM300600 18006KT P6SM SCT150
     FM301600 18012G20KT P6SM SCT080 BKN150=

USA.gov is the U.S. government's official web portal to all federal, state and local government web resources and services.